createdAt,value
2022-08-17T00:03:29.937Z,98563.65
2022-08-17T00:08:40.214Z,98567.20
2022-08-17T00:13:49.379Z,98568.05
2022-08-17T00:19:07.886Z,98559.81
2022-08-17T00:24:16.603Z,98557.92
2022-08-17T00:29:23.870Z,98556.23
2022-08-17T00:34:31.215Z,98553.80
2022-08-17T00:39:40.252Z,98564.63
2022-08-17T00:44:47.498Z,98566.03
2022-08-17T00:49:55.509Z,98562.53
2022-08-17T00:55:04.025Z,98566.64
2022-08-17T01:00:16.488Z,98569.05
2022-08-17T01:05:27.816Z,98574.52
2022-08-17T01:10:58.624Z,98575.02
2022-08-17T01:16:13.623Z,98567.25
2022-08-17T01:21:28.926Z,98562.74
2022-08-17T01:26:37.711Z,98559.23
2022-08-17T01:31:51.261Z,98556.02
2022-08-17T01:36:59.142Z,98551.13
2022-08-17T01:42:12.692Z,98555.45
2022-08-17T01:47:20.824Z,98559.23
2022-08-17T01:52:27.815Z,98558.58
2022-08-17T01:57:35.165Z,98559.14
2022-08-17T02:02:42.968Z,98563.09
2022-08-17T02:08:00.267Z,98567.41
2022-08-17T02:13:07.971Z,98570.66
2022-08-17T02:18:16.967Z,98574.64
2022-08-17T02:23:27.657Z,98577.76
2022-08-17T02:28:34.650Z,98583.70
2022-08-17T02:33:43.739Z,98585.91
2022-08-17T02:38:51.004Z,98588.81
2022-08-17T02:43:58.011Z,98587.89
2022-08-17T02:49:05.667Z,98598.05
2022-08-17T02:54:39.974Z,98597.45
2022-08-17T02:59:37.938Z,98592.95
2022-08-17T03:04:44.935Z,98589.10
2022-08-17T03:09:54.229Z,98581.68
2022-08-17T03:15:03.650Z,98582.02
2022-08-17T03:20:12.322Z,98587.83
2022-08-17T03:25:22.733Z,98588.56
2022-08-17T03:30:31.434Z,98588.64
2022-08-17T03:35:40.662Z,98584.52
2022-08-17T03:40:56.819Z,98586.48
2022-08-17T03:46:34.637Z,98597.73
2022-08-17T03:52:14.713Z,98596.60
2022-08-17T03:57:21.817Z,98598.67
2022-08-17T04:02:32.344Z,98601.71
2022-08-17T04:07:39.301Z,98608.52
2022-08-17T04:12:49.765Z,98618.21
2022-08-17T04:17:57.900Z,98620.45
2022-08-17T04:23:07.230Z,98622.63
2022-08-17T04:28:15.841Z,98623.48
2022-08-17T04:33:25.558Z,98619.77
2022-08-17T04:38:34.944Z,98617.34
2022-08-17T04:43:44.081Z,98621.17
2022-08-17T04:48:53.371Z,98630.22
2022-08-17T04:54:02.776Z,98632.61
2022-08-17T04:59:15.658Z,98632.55
2022-08-17T05:04:34.204Z,98633.30
2022-08-17T05:09:42.322Z,98633.33
2022-08-17T05:14:49.205Z,98638.49
2022-08-17T05:19:56.202Z,98644.33
2022-08-17T05:25:03.095Z,98651.35
2022-08-17T05:30:12.760Z,98649.73
2022-08-17T05:35:19.749Z,98651.66
2022-08-17T05:40:28.126Z,98655.54
2022-08-17T05:45:54.742Z,98659.90
2022-08-17T05:51:16.984Z,98659.21
2022-08-17T05:56:39.674Z,98659.20
2022-08-17T06:01:53.593Z,98657.45
2022-08-17T06:07:08.878Z,98663.73
2022-08-17T06:12:35.816Z,98662.70
2022-08-17T06:17:44.993Z,98662.18
2022-08-17T06:22:57.311Z,98662.25
2022-08-17T06:28:07.175Z,98658.72
2022-08-17T06:33:23.994Z,98654.60
2022-08-17T06:38:41.434Z,98661.10
2022-08-17T06:44:02.143Z,98661.98
2022-08-17T06:49:22.052Z,98662.58
2022-08-17T06:54:50.788Z,98663.16
2022-08-17T07:00:02.096Z,98663.02
2022-08-17T07:05:11.511Z,98672.71
2022-08-17T07:10:21.201Z,98678.44
2022-08-17T07:15:39.100Z,98681.63
2022-08-17T07:20:52.393Z,98681.36
2022-08-17T07:26:09.179Z,98673.15
2022-08-17T07:31:18.018Z,98671.59
2022-08-17T07:36:33.930Z,98673.85
2022-08-17T07:41:53.367Z,98669.89
2022-08-17T07:47:23.947Z,98666.96
2022-08-17T07:52:51.366Z,98667.12
2022-08-17T07:58:02.088Z,98665.73
2022-08-17T08:03:22.299Z,98666.68
2022-08-17T08:08:38.864Z,98661.06
2022-08-17T08:13:46.536Z,98659.15
2022-08-17T08:18:57.756Z,98661.75
2022-08-17T08:24:23.960Z,98668.48
2022-08-17T08:29:40.878Z,98663.45
2022-08-17T08:35:01.682Z,98662.30
2022-08-17T08:40:23.455Z,98656.54
2022-08-17T08:45:40.059Z,98648.41
2022-08-17T08:50:57.323Z,98652.11
2022-08-17T08:56:11.250Z,98651.61
2022-08-17T09:01:24.584Z,98648.14
2022-08-17T09:06:45.662Z,98644.98
2022-08-17T09:12:04.230Z,98642.19
2022-08-17T09:17:16.555Z,98640.08
2022-08-17T09:22:38.392Z,98651.77
2022-08-17T09:27:57.459Z,98647.57
2022-08-17T09:33:11.489Z,98648.69
2022-08-17T09:38:32.150Z,98649.36
2022-08-17T09:43:47.787Z,98648.23
2022-08-17T09:48:58.991Z,98653.48
2022-08-17T09:54:37.118Z,98655.52
2022-08-17T09:59:47.868Z,98656.52
2022-08-17T10:05:05.879Z,98656.80
2022-08-17T10:10:19.783Z,98654.84
2022-08-17T10:15:42.634Z,98654.57
2022-08-17T10:21:17.003Z,98658.38
2022-08-17T10:26:28.415Z,98655.38
2022-08-17T10:32:04.557Z,98655.05
2022-08-17T10:37:28.650Z,98652.35
2022-08-17T10:42:46.014Z,98656.15
2022-08-17T10:48:06.353Z,98656.19
2022-08-17T10:54:05.810Z,98653.01
2022-08-17T10:59:32.669Z,98658.30
2022-08-17T11:04:57.625Z,98656.25
2022-08-17T11:10:24.035Z,98655.23
2022-08-17T11:15:47.296Z,98653.48
2022-08-17T11:21:23.826Z,98648.02
2022-08-17T11:26:34.291Z,98648.83
2022-08-17T11:31:45.592Z,98639.45
2022-08-17T11:37:36.299Z,98632.25
2022-08-17T11:42:59.455Z,98635.92
2022-08-17T11:48:30.117Z,98640.30
2022-08-17T11:54:31.001Z,98638.55
2022-08-17T12:00:10.994Z,98634.01
2022-08-17T12:05:35.437Z,98636.67
2022-08-17T12:11:01.356Z,98630.35
2022-08-17T12:16:10.158Z,98623.81
2022-08-17T12:21:28.897Z,98624.18
2022-08-17T12:26:37.978Z,98620.58
2022-08-17T12:31:47.925Z,98621.23
2022-08-17T12:37:01.233Z,98621.61
2022-08-17T12:42:23.449Z,98619.88
2022-08-17T12:47:32.058Z,98620.67
2022-08-17T12:52:42.549Z,98622.80
2022-08-17T12:57:54.681Z,98623.80
2022-08-17T13:03:06.033Z,98622.05
2022-08-17T13:08:20.115Z,98625.34
2022-08-17T13:13:30.233Z,98622.01
2022-08-17T13:18:42.676Z,98618.96
2022-08-17T13:23:59.878Z,98615.38
2022-08-17T13:29:08.684Z,98612.23
2022-08-17T13:34:33.423Z,98607.70
2022-08-17T13:39:44.528Z,98604.13
2022-08-17T13:44:51.762Z,98605.28
2022-08-17T13:49:59.099Z,98610.77
2022-08-17T13:55:06.190Z,98612.80
2022-08-17T14:00:30.057Z,98618.23
2022-08-17T14:05:39.657Z,98619.41
2022-08-17T14:10:58.969Z,98619.24
2022-08-17T14:16:06.917Z,98622.01
2022-08-17T14:21:15.211Z,98624.16
2022-08-17T14:26:23.291Z,98615.34
2022-08-17T14:31:35.389Z,98616.98
2022-08-17T14:36:48.620Z,98616.36
2022-08-17T14:41:58.025Z,98618.60
2022-08-17T14:47:12.188Z,98613.22
2022-08-17T14:52:22.354Z,98611.30
2022-08-17T14:57:43.992Z,98619.07
2022-08-17T15:02:53.925Z,98618.06
2022-08-17T15:08:01.742Z,98623.09
2022-08-17T15:13:18.488Z,98622.32
2022-08-17T15:18:25.867Z,98619.05
2022-08-17T15:23:33.792Z,98613.70
2022-08-17T15:28:41.448Z,98622.25
2022-08-17T15:33:49.808Z,98624.73
2022-08-17T15:38:59.011Z,98617.92
2022-08-17T15:44:07.681Z,98625.68
2022-08-17T15:49:15.239Z,98623.54
2022-08-17T15:54:23.641Z,98616.95
2022-08-17T15:59:31.276Z,98633.29
2022-08-17T16:04:40.789Z,98644.40
2022-08-17T16:09:52.066Z,98650.15
2022-08-17T16:15:00.056Z,98651.96
2022-08-17T16:20:09.476Z,98655.61
2022-08-17T16:25:49.707Z,98655.73
2022-08-17T16:30:59.373Z,98660.99
2022-08-17T16:36:08.332Z,98663.45
2022-08-17T16:41:36.913Z,98669.17
2022-08-17T16:46:45.739Z,98672.06
2022-08-17T16:51:53.342Z,98673.84
2022-08-17T16:57:00.532Z,98677.30
2022-08-17T17:02:11.347Z,98682.02
2022-08-17T17:07:37.633Z,98679.64
2022-08-17T17:13:03.060Z,98684.23
2022-08-17T17:18:15.135Z,98693.48
2022-08-17T17:23:39.024Z,98693.05
2022-08-17T17:29:05.092Z,98687.59
2022-08-17T17:34:16.350Z,98696.43
2022-08-17T17:39:32.234Z,98706.94
2022-08-17T17:44:45.108Z,98713.48
2022-08-17T17:49:52.774Z,98714.69
2022-08-17T17:55:13.575Z,98720.75
2022-08-17T18:00:25.201Z,98723.15
2022-08-17T18:06:00.565Z,98728.44
2022-08-17T18:11:24.346Z,98735.26
2022-08-17T18:16:33.477Z,98738.99
2022-08-17T18:21:45.121Z,98740.38
2022-08-17T18:26:56.131Z,98742.36
2022-08-17T18:32:26.025Z,98744.31
2022-08-17T18:37:40.333Z,98746.45
2022-08-17T18:42:57.023Z,98743.87
2022-08-17T18:48:08.635Z,98745.27
2022-08-17T18:53:34.821Z,98743.41
2022-08-17T18:58:41.152Z,98742.16
2022-08-17T19:03:50.677Z,98744.69
2022-08-17T19:08:58.444Z,98747.54
2022-08-17T19:14:10.642Z,98750.76
2022-08-17T19:19:27.122Z,98752.89
2022-08-17T19:24:38.046Z,98747.46
2022-08-17T19:30:04.029Z,98753.50
2022-08-17T19:35:17.854Z,98752.14
2022-08-17T19:40:52.130Z,98761.02
2022-08-17T19:46:08.830Z,98766.12
2022-08-17T19:51:20.879Z,98768.71
2022-08-17T19:56:36.454Z,98773.99
2022-08-17T20:01:50.310Z,98777.95
2022-08-17T20:07:01.092Z,98776.33
2022-08-17T20:12:12.038Z,98771.83
2022-08-17T20:17:19.957Z,98771.17
2022-08-17T20:22:52.165Z,98780.73
2022-08-17T20:28:06.270Z,98782.81
2022-08-17T20:33:28.542Z,98791.31
2022-08-17T20:38:47.841Z,98786.95
2022-08-17T20:44:05.978Z,98792.38
2022-08-17T20:49:25.147Z,98793.48
2022-08-17T20:54:53.778Z,98794.27
2022-08-17T21:00:14.960Z,98785.73
2022-08-17T21:05:38.953Z,98780.28
2022-08-17T21:10:48.230Z,98773.23
2022-08-17T21:16:02.278Z,98771.33
2022-08-17T21:21:20.725Z,98775.98
2022-08-17T21:26:50.156Z,98782.19
2022-08-17T21:32:24.525Z,98794.99
2022-08-17T21:37:40.295Z,98797.64
2022-08-17T21:42:50.718Z,98790.82
2022-08-17T21:48:14.293Z,98786.11
2022-08-17T21:53:33.215Z,98784.41
2022-08-17T21:58:47.849Z,98775.92
2022-08-17T22:04:02.128Z,98766.61
2022-08-17T22:09:19.873Z,98774.83
2022-08-17T22:14:51.816Z,98775.17
2022-08-17T22:19:59.643Z,98767.29
2022-08-17T22:25:21.025Z,98765.42
2022-08-17T22:30:39.681Z,98755.86
2022-08-17T22:35:48.083Z,98755.52
2022-08-17T22:40:58.409Z,98755.84
2022-08-17T22:46:12.257Z,98763.42
2022-08-17T22:51:23.035Z,98770.41
2022-08-17T22:56:48.354Z,98765.73
2022-08-17T23:02:15.017Z,98756.81
2022-08-17T23:07:24.144Z,98746.45
2022-08-17T23:12:31.157Z,98744.76
2022-08-17T23:17:39.067Z,98754.98
2022-08-17T23:22:51.255Z,98762.73
2022-08-17T23:28:04.953Z,98764.00
2022-08-17T23:33:17.651Z,98772.02
2022-08-17T23:38:27.263Z,98770.98
2022-08-17T23:43:34.835Z,98769.91
2022-08-17T23:48:42.362Z,98763.98
2022-08-17T23:53:53.516Z,98773.31
2022-08-17T23:59:00.748Z,98781.87
